sensor_id;sensor_type;location;lat;lon;timestamp;P1;durP1;ratioP1;P2;durP2;ratioP2
66927;SDS011;59882;45.624;11.698;2023-07-20T00:02:23;12.15;;;8.40;;
66927;SDS011;59882;45.624;11.698;2023-07-20T00:04:49;15.63;;;9.57;;
66927;SDS011;59882;45.624;11.698;2023-07-20T00:07:14;13.90;;;7.65;;
66927;SDS011;59882;45.624;11.698;2023-07-20T00:09:40;13.47;;;7.87;;
66927;SDS011;59882;45.624;11.698;2023-07-20T00:12:06;13.30;;;7.27;;
66927;SDS011;59882;45.624;11.698;2023-07-20T00:14:32;13.10;;;7.45;;
66927;SDS011;59882;45.624;11.698;2023-07-20T00:16:58;13.30;;;7.95;;
66927;SDS011;59882;45.624;11.698;2023-07-20T00:19:24;13.80;;;8.00;;
66927;SDS011;59882;45.624;11.698;2023-07-20T00:21:53;12.40;;;6.57;;
66927;SDS011;59882;45.624;11.698;2023-07-20T00:24:19;15.23;;;6.72;;
66927;SDS011;59882;45.624;11.698;2023-07-20T00:26:45;13.18;;;7.70;;
66927;SDS011;59882;45.624;11.698;2023-07-20T00:29:11;14.70;;;6.77;;
66927;SDS011;59882;45.624;11.698;2023-07-20T00:31:37;13.37;;;6.93;;
66927;SDS011;59882;45.624;11.698;2023-07-20T00:34:03;17.73;;;8.27;;
66927;SDS011;59882;45.624;11.698;2023-07-20T00:36:29;13.23;;;7.53;;
66927;SDS011;59882;45.624;11.698;2023-07-20T00:38:55;14.95;;;7.88;;
66927;SDS011;59882;45.624;11.698;2023-07-20T00:41:21;13.95;;;7.78;;
66927;SDS011;59882;45.624;11.698;2023-07-20T00:43:47;13.83;;;8.50;;
66927;SDS011;59882;45.624;11.698;2023-07-20T00:46:13;17.20;;;8.63;;
66927;SDS011;59882;45.624;11.698;2023-07-20T00:48:39;16.57;;;9.03;;
66927;SDS011;59882;45.624;11.698;2023-07-20T00:51:06;18.50;;;9.13;;
66927;SDS011;59882;45.624;11.698;2023-07-20T00:53:32;16.02;;;9.70;;
66927;SDS011;59882;45.624;11.698;2023-07-20T00:55:57;16.80;;;8.73;;
66927;SDS011;59882;45.624;11.698;2023-07-20T00:58:23;16.80;;;8.40;;
66927;SDS011;59882;45.624;11.698;2023-07-20T01:00:49;16.63;;;9.07;;
66927;SDS011;59882;45.624;11.698;2023-07-20T01:03:15;14.73;;;9.30;;
66927;SDS011;59882;45.624;11.698;2023-07-20T01:06:15;15.50;;;8.80;;
66927;SDS011;59882;45.624;11.698;2023-07-20T01:14:42;17.63;;;11.43;;
66927;SDS011;59882;45.624;11.698;2023-07-20T01:17:07;22.50;;;14.55;;
66927;SDS011;59882;45.624;11.698;2023-07-20T01:19:33;19.60;;;10.80;;
66927;SDS011;59882;45.624;11.698;2023-07-20T01:25:07;19.42;;;9.07;;
66927;SDS011;59882;45.624;11.698;2023-07-20T01:27:55;12.60;;;7.10;;
66927;SDS011;59882;45.624;11.698;2023-07-20T01:30:52;16.67;;;9.45;;
66927;SDS011;59882;45.624;11.698;2023-07-20T01:33:26;21.25;;;9.32;;
66927;SDS011;59882;45.624;11.698;2023-07-20T01:35:54;17.77;;;9.13;;
66927;SDS011;59882;45.624;11.698;2023-07-20T01:38:22;18.60;;;9.95;;
66927;SDS011;59882;45.624;11.698;2023-07-20T01:40:49;16.57;;;9.23;;
66927;SDS011;59882;45.624;11.698;2023-07-20T01:43:15;19.27;;;9.27;;
66927;SDS011;59882;45.624;11.698;2023-07-20T01:45:41;16.30;;;9.32;;
66927;SDS011;59882;45.624;11.698;2023-07-20T01:48:07;20.53;;;9.57;;
66927;SDS011;59882;45.624;11.698;2023-07-20T01:50:32;16.10;;;8.88;;
66927;SDS011;59882;45.624;11.698;2023-07-20T01:52:59;15.50;;;8.73;;
66927;SDS011;59882;45.624;11.698;2023-07-20T01:55:25;18.27;;;9.57;;
66927;SDS011;59882;45.624;11.698;2023-07-20T01:57:51;19.63;;;9.00;;
66927;SDS011;59882;45.624;11.698;2023-07-20T02:00:17;15.07;;;8.40;;
66927;SDS011;59882;45.624;11.698;2023-07-20T02:02:46;19.03;;;10.27;;
66927;SDS011;59882;45.624;11.698;2023-07-20T02:05:12;18.08;;;9.85;;
66927;SDS011;59882;45.624;11.698;2023-07-20T02:07:37;14.15;;;9.02;;
66927;SDS011;59882;45.624;11.698;2023-07-20T02:10:03;21.20;;;8.77;;
66927;SDS011;59882;45.624;11.698;2023-07-20T02:12:29;17.50;;;7.90;;
66927;SDS011;59882;45.624;11.698;2023-07-20T02:14:55;13.63;;;8.77;;
66927;SDS011;59882;45.624;11.698;2023-07-20T02:17:20;13.13;;;8.27;;
66927;SDS011;59882;45.624;11.698;2023-07-20T02:19:46;15.80;;;9.07;;
66927;SDS011;59882;45.624;11.698;2023-07-20T02:22:14;17.95;;;9.65;;
66927;SDS011;59882;45.624;11.698;2023-07-20T02:24:41;18.73;;;9.15;;
66927;SDS011;59882;45.624;11.698;2023-07-20T02:27:07;16.17;;;9.57;;
66927;SDS011;59882;45.624;11.698;2023-07-20T02:29:33;15.30;;;7.97;;
66927;SDS011;59882;45.624;11.698;2023-07-20T02:31:59;13.63;;;8.23;;
66927;SDS011;59882;45.624;11.698;2023-07-20T02:34:24;15.10;;;8.20;;
66927;SDS011;59882;45.624;11.698;2023-07-20T02:36:50;12.07;;;7.93;;
66927;SDS011;59882;45.624;11.698;2023-07-20T02:39:16;13.65;;;7.50;;
66927;SDS011;59882;45.624;11.698;2023-07-20T02:41:41;13.23;;;7.63;;
66927;SDS011;59882;45.624;11.698;2023-07-20T02:44:07;12.32;;;7.05;;
66927;SDS011;59882;45.624;11.698;2023-07-20T02:46:33;11.00;;;6.70;;
66927;SDS011;59882;45.624;11.698;2023-07-20T02:49:00;13.50;;;6.78;;
66927;SDS011;59882;45.624;11.698;2023-07-20T02:51:26;11.25;;;6.88;;
66927;SDS011;59882;45.624;11.698;2023-07-20T02:53:51;16.80;;;6.80;;
66927;SDS011;59882;45.624;11.698;2023-07-20T02:56:17;11.20;;;7.67;;
66927;SDS011;59882;45.624;11.698;2023-07-20T02:58:43;13.10;;;7.10;;
66927;SDS011;59882;45.624;11.698;2023-07-20T03:01:09;12.90;;;7.18;;
66927;SDS011;59882;45.624;11.698;2023-07-20T03:03:37;11.33;;;5.47;;
66927;SDS011;59882;45.624;11.698;2023-07-20T03:06:03;12.45;;;7.22;;
66927;SDS011;59882;45.624;11.698;2023-07-20T03:08:29;14.57;;;7.20;;
66927;SDS011;59882;45.624;11.698;2023-07-20T03:10:55;12.70;;;6.90;;
66927;SDS011;59882;45.624;11.698;2023-07-20T03:13:21;13.17;;;6.87;;
66927;SDS011;59882;45.624;11.698;2023-07-20T03:15:46;11.90;;;6.73;;
66927;SDS011;59882;45.624;11.698;2023-07-20T03:18:12;14.23;;;6.97;;
66927;SDS011;59882;45.624;11.698;2023-07-20T03:20:38;12.67;;;7.23;;
66927;SDS011;59882;45.624;11.698;2023-07-20T03:23:03;13.52;;;7.07;;
66927;SDS011;59882;45.624;11.698;2023-07-20T03:25:29;13.97;;;7.47;;
66927;SDS011;59882;45.624;11.698;2023-07-20T03:27:55;14.23;;;7.95;;
66927;SDS011;59882;45.624;11.698;2023-07-20T03:30:20;16.07;;;7.83;;
66927;SDS011;59882;45.624;11.698;2023-07-20T03:32:46;11.60;;;7.30;;
66927;SDS011;59882;45.624;11.698;2023-07-20T03:35:12;12.50;;;7.40;;
66927;SDS011;59882;45.624;11.698;2023-07-20T03:37:37;15.13;;;7.82;;
66927;SDS011;59882;45.624;11.698;2023-07-20T03:40:03;11.97;;;7.43;;
66927;SDS011;59882;45.624;11.698;2023-07-20T03:42:30;10.82;;;8.38;;
66927;SDS011;59882;45.624;11.698;2023-07-20T03:44:55;10.60;;;7.03;;
66927;SDS011;59882;45.624;11.698;2023-07-20T03:47:21;13.53;;;8.00;;
66927;SDS011;59882;45.624;11.698;2023-07-20T03:49:47;12.97;;;7.03;;
66927;SDS011;59882;45.624;11.698;2023-07-20T03:52:12;14.48;;;8.60;;
66927;SDS011;59882;45.624;11.698;2023-07-20T03:54:38;13.73;;;8.60;;
66927;SDS011;59882;45.624;11.698;2023-07-20T03:57:04;16.58;;;9.32;;
66927;SDS011;59882;45.624;11.698;2023-07-20T03:59:29;16.03;;;9.83;;
66927;SDS011;59882;45.624;11.698;2023-07-20T04:01:55;16.15;;;9.07;;
66927;SDS011;59882;45.624;11.698;2023-07-20T04:04:21;15.73;;;8.77;;
66927;SDS011;59882;45.624;11.698;2023-07-20T04:06:46;12.75;;;8.38;;
66927;SDS011;59882;45.624;11.698;2023-07-20T04:09:12;16.60;;;8.43;;
66927;SDS011;59882;45.624;11.698;2023-07-20T04:11:38;13.30;;;8.23;;
66927;SDS011;59882;45.624;11.698;2023-07-20T04:14:04;15.97;;;9.63;;
66927;SDS011;59882;45.624;11.698;2023-07-20T04:16:29;18.35;;;10.52;;
66927;SDS011;59882;45.624;11.698;2023-07-20T04:18:55;15.77;;;10.85;;
66927;SDS011;59882;45.624;11.698;2023-07-20T04:23:47;22.03;;;15.10;;
66927;SDS011;59882;45.624;11.698;2023-07-20T04:26:12;20.58;;;13.77;;
66927;SDS011;59882;45.624;11.698;2023-07-20T04:28:39;22.75;;;14.65;;
66927;SDS011;59882;45.624;11.698;2023-07-20T04:31:13;25.57;;;15.07;;
66927;SDS011;59882;45.624;11.698;2023-07-20T04:33:40;22.88;;;14.82;;
66927;SDS011;59882;45.624;11.698;2023-07-20T04:36:06;19.63;;;13.48;;
66927;SDS011;59882;45.624;11.698;2023-07-20T04:38:33;20.83;;;12.70;;
66927;SDS011;59882;45.624;11.698;2023-07-20T04:40:58;19.43;;;10.60;;
66927;SDS011;59882;45.624;11.698;2023-07-20T04:43:24;15.48;;;9.57;;
66927;SDS011;59882;45.624;11.698;2023-07-20T04:45:51;18.65;;;9.77;;
66927;SDS011;59882;45.624;11.698;2023-07-20T04:48:17;16.80;;;9.73;;
66927;SDS011;59882;45.624;11.698;2023-07-20T04:50:43;16.52;;;8.93;;
66927;SDS011;59882;45.624;11.698;2023-07-20T04:53:10;13.35;;;8.52;;
66927;SDS011;59882;45.624;11.698;2023-07-20T04:55:37;21.48;;;9.65;;
66927;SDS011;59882;45.624;11.698;2023-07-20T04:58:03;15.43;;;7.90;;
66927;SDS011;59882;45.624;11.698;2023-07-20T05:00:29;17.17;;;7.65;;
66927;SDS011;59882;45.624;11.698;2023-07-20T05:02:55;12.75;;;6.57;;
66927;SDS011;59882;45.624;11.698;2023-07-20T05:05:21;13.15;;;7.68;;
66927;SDS011;59882;45.624;11.698;2023-07-20T05:07:47;14.67;;;7.53;;
66927;SDS011;59882;45.624;11.698;2023-07-20T05:10:13;15.35;;;7.22;;
66927;SDS011;59882;45.624;11.698;2023-07-20T05:12:39;14.30;;;7.67;;
66927;SDS011;59882;45.624;11.698;2023-07-20T05:15:04;13.48;;;7.43;;
66927;SDS011;59882;45.624;11.698;2023-07-20T05:17:30;12.65;;;7.13;;
66927;SDS011;59882;45.624;11.698;2023-07-20T05:19:56;14.23;;;7.57;;
66927;SDS011;59882;45.624;11.698;2023-07-20T05:22:21;12.30;;;7.13;;
66927;SDS011;59882;45.624;11.698;2023-07-20T05:24:48;12.67;;;7.13;;
66927;SDS011;59882;45.624;11.698;2023-07-20T05:27:13;9.48;;;6.38;;
66927;SDS011;59882;45.624;11.698;2023-07-20T05:29:48;13.33;;;6.83;;
66927;SDS011;59882;45.624;11.698;2023-07-20T05:32:13;10.43;;;7.50;;
66927;SDS011;59882;45.624;11.698;2023-07-20T05:34:39;15.23;;;7.80;;
66927;SDS011;59882;45.624;11.698;2023-07-20T05:37:05;12.48;;;7.25;;
66927;SDS011;59882;45.624;11.698;2023-07-20T05:39:34;13.30;;;7.35;;
66927;SDS011;59882;45.624;11.698;2023-07-20T05:41:59;14.02;;;7.03;;
66927;SDS011;59882;45.624;11.698;2023-07-20T05:44:25;11.30;;;6.20;;
66927;SDS011;59882;45.624;11.698;2023-07-20T05:46:50;13.77;;;7.13;;
66927;SDS011;59882;45.624;11.698;2023-07-20T05:49:16;12.68;;;6.30;;
66927;SDS011;59882;45.624;11.698;2023-07-20T05:51:41;12.70;;;6.80;;
66927;SDS011;59882;45.624;11.698;2023-07-20T05:54:07;10.83;;;6.17;;
66927;SDS011;59882;45.624;11.698;2023-07-20T05:56:33;10.68;;;5.72;;
66927;SDS011;59882;45.624;11.698;2023-07-20T05:58:58;12.87;;;6.23;;
66927;SDS011;59882;45.624;11.698;2023-07-20T06:01:24;11.35;;;6.65;;
66927;SDS011;59882;45.624;11.698;2023-07-20T06:03:52;11.48;;;6.63;;
66927;SDS011;59882;45.624;11.698;2023-07-20T06:06:18;10.03;;;5.37;;
66927;SDS011;59882;45.624;11.698;2023-07-20T06:08:44;11.73;;;6.40;;
66927;SDS011;59882;45.624;11.698;2023-07-20T06:11:10;12.63;;;6.85;;
66927;SDS011;59882;45.624;11.698;2023-07-20T06:13:36;13.38;;;6.07;;
66927;SDS011;59882;45.624;11.698;2023-07-20T06:16:02;11.73;;;6.07;;
66927;SDS011;59882;45.624;11.698;2023-07-20T06:18:28;10.35;;;5.82;;
66927;SDS011;59882;45.624;11.698;2023-07-20T06:20:55;10.50;;;5.65;;
66927;SDS011;59882;45.624;11.698;2023-07-20T06:23:21;12.67;;;5.93;;
66927;SDS011;59882;45.624;11.698;2023-07-20T06:25:46;13.50;;;5.80;;
66927;SDS011;59882;45.624;11.698;2023-07-20T06:28:12;10.52;;;5.68;;
66927;SDS011;59882;45.624;11.698;2023-07-20T06:30:38;9.25;;;5.68;;
66927;SDS011;59882;45.624;11.698;2023-07-20T06:33:04;10.10;;;4.83;;
66927;SDS011;59882;45.624;11.698;2023-07-20T06:35:30;10.13;;;4.90;;
66927;SDS011;59882;45.624;11.698;2023-07-20T06:37:55;10.53;;;4.57;;
66927;SDS011;59882;45.624;11.698;2023-07-20T06:40:21;10.23;;;4.38;;
66927;SDS011;59882;45.624;11.698;2023-07-20T06:42:47;11.63;;;5.13;;
66927;SDS011;59882;45.624;11.698;2023-07-20T06:45:12;8.93;;;4.50;;
66927;SDS011;59882;45.624;11.698;2023-07-20T06:47:38;8.03;;;4.23;;
66927;SDS011;59882;45.624;11.698;2023-07-20T06:50:07;9.73;;;4.03;;
66927;SDS011;59882;45.624;11.698;2023-07-20T06:52:34;8.85;;;4.38;;
66927;SDS011;59882;45.624;11.698;2023-07-20T06:55:00;13.40;;;4.00;;
66927;SDS011;59882;45.624;11.698;2023-07-20T06:57:26;9.67;;;4.53;;
66927;SDS011;59882;45.624;11.698;2023-07-20T06:59:51;10.00;;;3.80;;
66927;SDS011;59882;45.624;11.698;2023-07-20T07:02:18;8.70;;;4.10;;
66927;SDS011;59882;45.624;11.698;2023-07-20T07:04:44;6.30;;;4.17;;
66927;SDS011;59882;45.624;11.698;2023-07-20T07:07:11;8.75;;;4.90;;
66927;SDS011;59882;45.624;11.698;2023-07-20T07:09:40;9.07;;;4.68;;
66927;SDS011;59882;45.624;11.698;2023-07-20T07:12:06;8.70;;;4.32;;
66927;SDS011;59882;45.624;11.698;2023-07-20T07:14:33;14.93;;;4.50;;
66927;SDS011;59882;45.624;11.698;2023-07-20T07:16:58;16.17;;;4.78;;
66927;SDS011;59882;45.624;11.698;2023-07-20T07:19:24;8.90;;;3.92;;
66927;SDS011;59882;45.624;11.698;2023-07-20T07:21:50;8.10;;;4.07;;
66927;SDS011;59882;45.624;11.698;2023-07-20T07:24:16;7.65;;;3.78;;
66927;SDS011;59882;45.624;11.698;2023-07-20T07:26:41;9.30;;;4.23;;
66927;SDS011;59882;45.624;11.698;2023-07-20T07:29:07;9.57;;;3.88;;
66927;SDS011;59882;45.624;11.698;2023-07-20T07:31:34;7.50;;;3.80;;
66927;SDS011;59882;45.624;11.698;2023-07-20T07:34:03;9.15;;;4.38;;
66927;SDS011;59882;45.624;11.698;2023-07-20T07:36:30;11.32;;;5.05;;
66927;SDS011;59882;45.624;11.698;2023-07-20T07:38:56;10.20;;;4.97;;
66927;SDS011;59882;45.624;11.698;2023-07-20T07:41:22;13.30;;;4.83;;
66927;SDS011;59882;45.624;11.698;2023-07-20T07:43:48;9.25;;;5.15;;
66927;SDS011;59882;45.624;11.698;2023-07-20T07:46:13;12.90;;;6.07;;
66927;SDS011;59882;45.624;11.698;2023-07-20T07:48:39;11.43;;;5.73;;
66927;SDS011;59882;45.624;11.698;2023-07-20T07:51:05;10.65;;;5.80;;
66927;SDS011;59882;45.624;11.698;2023-07-20T07:53:31;10.27;;;5.77;;
66927;SDS011;59882;45.624;11.698;2023-07-20T07:55:57;12.02;;;5.22;;
66927;SDS011;59882;45.624;11.698;2023-07-20T07:58:23;10.63;;;4.70;;
66927;SDS011;59882;45.624;11.698;2023-07-20T08:00:49;14.40;;;5.10;;
66927;SDS011;59882;45.624;11.698;2023-07-20T08:03:14;12.37;;;5.30;;
66927;SDS011;59882;45.624;11.698;2023-07-20T08:05:40;9.03;;;5.27;;
66927;SDS011;59882;45.624;11.698;2023-07-20T08:08:06;10.18;;;4.72;;
66927;SDS011;59882;45.624;11.698;2023-07-20T08:10:33;11.43;;;5.20;;
66927;SDS011;59882;45.624;11.698;2023-07-20T08:12:59;10.40;;;5.50;;
66927;SDS011;59882;45.624;11.698;2023-07-20T08:15:25;10.00;;;5.43;;
66927;SDS011;59882;45.624;11.698;2023-07-20T08:17:50;12.17;;;5.37;;
66927;SDS011;59882;45.624;11.698;2023-07-20T08:20:17;13.60;;;5.13;;
66927;SDS011;59882;45.624;11.698;2023-07-20T08:22:43;11.43;;;4.95;;
66927;SDS011;59882;45.624;11.698;2023-07-20T08:25:09;11.67;;;5.43;;
66927;SDS011;59882;45.624;11.698;2023-07-20T08:27:35;13.00;;;4.60;;
66927;SDS011;59882;45.624;11.698;2023-07-20T08:30:01;7.68;;;4.28;;
66927;SDS011;59882;45.624;11.698;2023-07-20T08:32:28;12.82;;;5.60;;
66927;SDS011;59882;45.624;11.698;2023-07-20T08:34:53;11.93;;;5.00;;
66927;SDS011;59882;45.624;11.698;2023-07-20T08:37:19;11.37;;;4.90;;
66927;SDS011;59882;45.624;11.698;2023-07-20T08:39:44;9.55;;;4.78;;
66927;SDS011;59882;45.624;11.698;2023-07-20T08:42:10;9.73;;;5.27;;
66927;SDS011;59882;45.624;11.698;2023-07-20T08:44:38;9.43;;;4.20;;
66927;SDS011;59882;45.624;11.698;2023-07-20T08:47:06;8.35;;;3.97;;
66927;SDS011;59882;45.624;11.698;2023-07-20T08:49:32;9.68;;;4.95;;
66927;SDS011;59882;45.624;11.698;2023-07-20T08:51:59;11.23;;;3.63;;
66927;SDS011;59882;45.624;11.698;2023-07-20T08:54:29;8.27;;;3.92;;
66927;SDS011;59882;45.624;11.698;2023-07-20T08:57:02;8.98;;;4.28;;
66927;SDS011;59882;45.624;11.698;2023-07-20T08:59:29;9.95;;;4.20;;
66927;SDS011;59882;45.624;11.698;2023-07-20T09:01:58;7.95;;;3.88;;
66927;SDS011;59882;45.624;11.698;2023-07-20T09:04:25;10.37;;;4.40;;
66927;SDS011;59882;45.624;11.698;2023-07-20T09:06:50;9.65;;;4.60;;
66927;SDS011;59882;45.624;11.698;2023-07-20T09:09:16;9.13;;;3.83;;
66927;SDS011;59882;45.624;11.698;2023-07-20T09:11:42;9.40;;;3.38;;
66927;SDS011;59882;45.624;11.698;2023-07-20T09:14:11;6.05;;;3.70;;
66927;SDS011;59882;45.624;11.698;2023-07-20T09:16:57;8.60;;;4.27;;
66927;SDS011;59882;45.624;11.698;2023-07-20T09:19:22;8.02;;;4.03;;
66927;SDS011;59882;45.624;11.698;2023-07-20T09:21:48;7.43;;;3.57;;
66927;SDS011;59882;45.624;11.698;2023-07-20T09:24:15;7.85;;;3.60;;
66927;SDS011;59882;45.624;11.698;2023-07-20T09:26:43;7.85;;;3.80;;
66927;SDS011;59882;45.624;11.698;2023-07-20T09:29:09;6.25;;;3.35;;
66927;SDS011;59882;45.624;11.698;2023-07-20T09:31:36;6.47;;;3.10;;
66927;SDS011;59882;45.624;11.698;2023-07-20T09:34:02;7.13;;;3.30;;
66927;SDS011;59882;45.624;11.698;2023-07-20T09:36:29;7.20;;;3.92;;
66927;SDS011;59882;45.624;11.698;2023-07-20T09:38:59;9.48;;;3.65;;
66927;SDS011;59882;45.624;11.698;2023-07-20T09:41:25;7.37;;;3.53;;
66927;SDS011;59882;45.624;11.698;2023-07-20T09:43:51;8.20;;;3.58;;
66927;SDS011;59882;45.624;11.698;2023-07-20T09:46:18;7.40;;;3.13;;
66927;SDS011;59882;45.624;11.698;2023-07-20T09:48:54;7.32;;;3.58;;
66927;SDS011;59882;45.624;11.698;2023-07-20T09:51:22;7.63;;;4.63;;
66927;SDS011;59882;45.624;11.698;2023-07-20T09:53:49;9.10;;;3.73;;
66927;SDS011;59882;45.624;11.698;2023-07-20T09:56:19;9.25;;;3.90;;
66927;SDS011;59882;45.624;11.698;2023-07-20T09:58:47;7.40;;;3.83;;
66927;SDS011;59882;45.624;11.698;2023-07-20T10:01:13;7.95;;;3.55;;
66927;SDS011;59882;45.624;11.698;2023-07-20T10:03:43;9.40;;;3.95;;
66927;SDS011;59882;45.624;11.698;2023-07-20T10:06:12;7.27;;;3.90;;
66927;SDS011;59882;45.624;11.698;2023-07-20T10:08:43;7.03;;;3.50;;
66927;SDS011;59882;45.624;11.698;2023-07-20T10:11:12;8.00;;;3.40;;
66927;SDS011;59882;45.624;11.698;2023-07-20T10:13:40;7.07;;;3.60;;
66927;SDS011;59882;45.624;11.698;2023-07-20T10:16:12;9.52;;;3.40;;
66927;SDS011;59882;45.624;11.698;2023-07-20T10:21:29;6.28;;;3.63;;
66927;SDS011;59882;45.624;11.698;2023-07-20T10:23:55;5.45;;;3.38;;
66927;SDS011;59882;45.624;11.698;2023-07-20T10:26:22;6.70;;;3.22;;
66927;SDS011;59882;45.624;11.698;2023-07-20T10:28:47;6.80;;;3.53;;
66927;SDS011;59882;45.624;11.698;2023-07-20T10:31:14;6.88;;;2.90;;
66927;SDS011;59882;45.624;11.698;2023-07-20T10:33:40;7.55;;;3.95;;
66927;SDS011;59882;45.624;11.698;2023-07-20T10:36:07;7.33;;;3.63;;
66927;SDS011;59882;45.624;11.698;2023-07-20T10:41:19;8.57;;;3.42;;
66927;SDS011;59882;45.624;11.698;2023-07-20T10:44:06;11.60;;;3.33;;
66927;SDS011;59882;45.624;11.698;2023-07-20T10:49:05;9.80;;;3.88;;
66927;SDS011;59882;45.624;11.698;2023-07-20T10:51:41;7.53;;;2.88;;
66927;SDS011;59882;45.624;11.698;2023-07-20T10:56:41;6.22;;;2.88;;
66927;SDS011;59882;45.624;11.698;2023-07-20T10:59:17;9.63;;;3.40;;
66927;SDS011;59882;45.624;11.698;2023-07-20T11:01:47;9.70;;;2.63;;
66927;SDS011;59882;45.624;11.698;2023-07-20T11:04:14;7.63;;;2.97;;
66927;SDS011;59882;45.624;11.698;2023-07-20T11:06:45;4.47;;;2.22;;
66927;SDS011;59882;45.624;11.698;2023-07-20T11:09:12;6.75;;;2.75;;
66927;SDS011;59882;45.624;11.698;2023-07-20T11:14:21;6.28;;;2.63;;
66927;SDS011;59882;45.624;11.698;2023-07-20T11:16:48;7.35;;;2.78;;
66927;SDS011;59882;45.624;11.698;2023-07-20T11:19:19;9.20;;;3.25;;
66927;SDS011;59882;45.624;11.698;2023-07-20T11:21:52;6.82;;;2.90;;
66927;SDS011;59882;45.624;11.698;2023-07-20T11:24:22;8.43;;;3.00;;
66927;SDS011;59882;45.624;11.698;2023-07-20T11:26:49;5.10;;;2.55;;
66927;SDS011;59882;45.624;11.698;2023-07-20T11:29:16;5.82;;;2.78;;
66927;SDS011;59882;45.624;11.698;2023-07-20T11:31:44;4.65;;;2.55;;
66927;SDS011;59882;45.624;11.698;2023-07-20T11:34:11;5.18;;;2.55;;
66927;SDS011;59882;45.624;11.698;2023-07-20T11:36:39;7.50;;;2.43;;
66927;SDS011;59882;45.624;11.698;2023-07-20T11:39:09;7.40;;;3.03;;
66927;SDS011;59882;45.624;11.698;2023-07-20T11:41:36;4.80;;;1.83;;
66927;SDS011;59882;45.624;11.698;2023-07-20T11:44:03;9.45;;;2.67;;
66927;SDS011;59882;45.624;11.698;2023-07-20T11:46:31;4.55;;;2.42;;
66927;SDS011;59882;45.624;11.698;2023-07-20T11:49:00;6.07;;;2.30;;
66927;SDS011;59882;45.624;11.698;2023-07-20T11:51:28;5.28;;;2.40;;
66927;SDS011;59882;45.624;11.698;2023-07-20T11:53:54;4.78;;;2.05;;
66927;SDS011;59882;45.624;11.698;2023-07-20T11:56:20;4.97;;;2.13;;
66927;SDS011;59882;45.624;11.698;2023-07-20T11:58:48;5.90;;;2.35;;
66927;SDS011;59882;45.624;11.698;2023-07-20T12:01:14;6.53;;;2.50;;
66927;SDS011;59882;45.624;11.698;2023-07-20T12:03:41;6.28;;;2.45;;
66927;SDS011;59882;45.624;11.698;2023-07-20T12:06:09;5.85;;;2.45;;
66927;SDS011;59882;45.624;11.698;2023-07-20T12:08:37;5.40;;;2.43;;
66927;SDS011;59882;45.624;11.698;2023-07-20T12:11:05;5.95;;;2.22;;
66927;SDS011;59882;45.624;11.698;2023-07-20T12:13:42;7.15;;;2.38;;
66927;SDS011;59882;45.624;11.698;2023-07-20T12:16:10;6.38;;;2.90;;
66927;SDS011;59882;45.624;11.698;2023-07-20T12:18:39;5.53;;;2.50;;
66927;SDS011;59882;45.624;11.698;2023-07-20T12:21:06;7.63;;;2.33;;
66927;SDS011;59882;45.624;11.698;2023-07-20T12:23:39;6.72;;;2.78;;
66927;SDS011;59882;45.624;11.698;2023-07-20T12:26:06;5.10;;;2.60;;
66927;SDS011;59882;45.624;11.698;2023-07-20T12:28:35;5.75;;;3.13;;
66927;SDS011;59882;45.624;11.698;2023-07-20T12:31:05;6.37;;;2.57;;
66927;SDS011;59882;45.624;11.698;2023-07-20T12:33:32;8.05;;;3.28;;
66927;SDS011;59882;45.624;11.698;2023-07-20T12:35:57;5.97;;;2.13;;
66927;SDS011;59882;45.624;11.698;2023-07-20T12:38:25;8.80;;;2.93;;
66927;SDS011;59882;45.624;11.698;2023-07-20T12:40:52;7.63;;;2.83;;
66927;SDS011;59882;45.624;11.698;2023-07-20T12:43:19;5.10;;;2.22;;
66927;SDS011;59882;45.624;11.698;2023-07-20T12:45:45;6.90;;;2.83;;
66927;SDS011;59882;45.624;11.698;2023-07-20T12:48:11;6.87;;;2.90;;
66927;SDS011;59882;45.624;11.698;2023-07-20T12:50:36;5.20;;;2.67;;
66927;SDS011;59882;45.624;11.698;2023-07-20T12:53:02;6.18;;;2.70;;
66927;SDS011;59882;45.624;11.698;2023-07-20T12:55:28;7.57;;;2.63;;
66927;SDS011;59882;45.624;11.698;2023-07-20T12:57:54;9.77;;;2.93;;
66927;SDS011;59882;45.624;11.698;2023-07-20T13:00:20;7.50;;;2.50;;
66927;SDS011;59882;45.624;11.698;2023-07-20T13:02:49;7.80;;;3.00;;
66927;SDS011;59882;45.624;11.698;2023-07-20T13:05:15;6.93;;;2.80;;
66927;SDS011;59882;45.624;11.698;2023-07-20T13:07:41;5.57;;;3.17;;
66927;SDS011;59882;45.624;11.698;2023-07-20T13:10:08;6.43;;;2.97;;
66927;SDS011;59882;45.624;11.698;2023-07-20T13:12:35;5.10;;;3.03;;
66927;SDS011;59882;45.624;11.698;2023-07-20T13:15:02;6.80;;;3.13;;
66927;SDS011;59882;45.624;11.698;2023-07-20T13:17:30;7.35;;;3.35;;
66927;SDS011;59882;45.624;11.698;2023-07-20T13:20:00;5.93;;;3.15;;
66927;SDS011;59882;45.624;11.698;2023-07-20T13:22:26;6.30;;;3.75;;
66927;SDS011;59882;45.624;11.698;2023-07-20T13:24:52;7.65;;;3.35;;
66927;SDS011;59882;45.624;11.698;2023-07-20T13:27:18;6.07;;;3.63;;
66927;SDS011;59882;45.624;11.698;2023-07-20T13:29:45;5.40;;;3.15;;
66927;SDS011;59882;45.624;11.698;2023-07-20T13:32:14;6.05;;;3.90;;
66927;SDS011;59882;45.624;11.698;2023-07-20T13:34:40;5.85;;;3.90;;
66927;SDS011;59882;45.624;11.698;2023-07-20T13:37:06;5.97;;;3.67;;
66927;SDS011;59882;45.624;11.698;2023-07-20T13:39:33;5.70;;;3.45;;
66927;SDS011;59882;45.624;11.698;2023-07-20T13:41:58;7.35;;;3.60;;
66927;SDS011;59882;45.624;11.698;2023-07-20T13:44:26;6.83;;;3.60;;
66927;SDS011;59882;45.624;11.698;2023-07-20T13:46:52;6.78;;;4.10;;
66927;SDS011;59882;45.624;11.698;2023-07-20T13:49:18;7.43;;;3.95;;
66927;SDS011;59882;45.624;11.698;2023-07-20T13:51:43;7.20;;;4.27;;
66927;SDS011;59882;45.624;11.698;2023-07-20T13:54:09;5.53;;;3.50;;
66927;SDS011;59882;45.624;11.698;2023-07-20T13:56:35;7.43;;;3.97;;
66927;SDS011;59882;45.624;11.698;2023-07-20T13:59:00;8.68;;;3.70;;
66927;SDS011;59882;45.624;11.698;2023-07-20T14:01:26;7.43;;;4.20;;
66927;SDS011;59882;45.624;11.698;2023-07-20T14:03:54;6.43;;;4.10;;
66927;SDS011;59882;45.624;11.698;2023-07-20T14:06:20;9.00;;;4.40;;
66927;SDS011;59882;45.624;11.698;2023-07-20T14:08:46;5.65;;;3.97;;
66927;SDS011;59882;45.624;11.698;2023-07-20T14:11:13;5.93;;;4.28;;
66927;SDS011;59882;45.624;11.698;2023-07-20T14:13:39;5.13;;;3.97;;
66927;SDS011;59882;45.624;11.698;2023-07-20T14:16:05;7.13;;;4.07;;
66927;SDS011;59882;45.624;11.698;2023-07-20T14:18:30;6.40;;;3.57;;
66927;SDS011;59882;45.624;11.698;2023-07-20T14:20:56;7.70;;;3.97;;
66927;SDS011;59882;45.624;11.698;2023-07-20T14:23:22;7.23;;;4.67;;
66927;SDS011;59882;45.624;11.698;2023-07-20T14:25:48;6.13;;;4.32;;
66927;SDS011;59882;45.624;11.698;2023-07-20T14:28:14;7.90;;;4.47;;
66927;SDS011;59882;45.624;11.698;2023-07-20T14:30:39;6.07;;;4.13;;
66927;SDS011;59882;45.624;11.698;2023-07-20T14:33:06;6.25;;;4.00;;
66927;SDS011;59882;45.624;11.698;2023-07-20T14:35:32;6.13;;;4.33;;
66927;SDS011;59882;45.624;11.698;2023-07-20T14:37:59;6.03;;;3.45;;
66927;SDS011;59882;45.624;11.698;2023-07-20T14:40:25;5.80;;;4.38;;
66927;SDS011;59882;45.624;11.698;2023-07-20T14:42:50;5.70;;;3.80;;
66927;SDS011;59882;45.624;11.698;2023-07-20T14:45:17;5.57;;;4.15;;
66927;SDS011;59882;45.624;11.698;2023-07-20T14:47:43;7.82;;;4.32;;
66927;SDS011;59882;45.624;11.698;2023-07-20T14:50:08;6.43;;;3.60;;